Time;durP1;ratioP1;P1;durP2;ratioP2;P2;SDS_P1;SDS_P2;PMS_P1;PMS_P2;Temp;Humidity;BMP_temperature;BMP_pressure;BME280_temperature;BME280_humidity;BME280_pressure;Samples;Min_cycle;Max_cycle;Signal;HPM_P1;HPM_P2
2020/12/03 00:01:08;;;;;;;137.40;58.28;;;;;;;-2.50;97.79;100749.94;5058438;28;20065;-52
2020/12/03 00:03:48;;;;;;;143.67;60.33;;;;;;;-2.57;98.43;100750.22;5059965;28;20081;-54
2020/12/03 00:06:24;;;;;;;133.13;56.67;;;;;;;-2.44;97.95;100750.44;5048499;28;20106;-51
2020/12/03 00:09:05;;;;;;;129.30;54.97;;;;;;;-2.18;97.72;100749.06;5056988;28;20799;-52
2020/12/03 00:11:34;;;;;;;131.15;56.17;;;;;;;-2.53;97.69;100746.34;5062123;28;20455;-52
2020/12/03 00:14:00;;;;;;;134.70;57.45;;;;;;;-2.54;97.24;100740.47;5058673;28;20049;-48
2020/12/03 00:16:29;;;;;;;132.70;56.80;;;;;;;-2.48;97.46;100740.94;5059429;28;20040;-53
2020/12/03 00:18:56;;;;;;;135.70;56.65;;;;;;;-2.41;97.61;100743.13;5057698;28;20056;-51
2020/12/03 00:21:43;;;;;;;135.50;55.13;;;;;;;-2.45;96.93;100750.31;5055459;28;20049;-52
2020/12/03 00:24:11;;;;;;;;;;;;;;;-2.48;97.28;100742.56;5059446;28;20044;-49
2020/12/03 00:26:38;;;;;;;137.98;56.72;;;;;;;-2.62;97.45;100741.47;5059308;28;19931;-47
2020/12/03 00:29:05;;;;;;;130.65;58.47;;;;;;;-2.58;97.13;100743.47;5056700;28;20095;-49
2020/12/03 00:31:32;;;;;;;133.25;56.72;;;;;;;-2.59;97.57;100742.59;5055520;28;20385;-50
2020/12/03 00:33:58;;;;;;;127.47;55.25;;;;;;;-2.47;97.06;100742.66;5057555;28;20053;-51
2020/12/03 00:36:25;;;;;;;131.70;54.92;;;;;;;-2.63;97.47;100734.72;5058742;28;20059;-49
2020/12/03 00:38:51;;;;;;;135.35;57.40;;;;;;;-2.71;97.58;100738.25;5056678;28;20048;-51
2020/12/03 00:41:19;;;;;;;135.02;54.85;;;;;;;-2.47;97.89;100731.78;5055335;28;20351;-47
2020/12/03 00:43:46;;;;;;;139.25;56.58;;;;;;;-2.68;97.39;100730.94;5055589;28;20045;-52
2020/12/03 00:46:13;;;;;;;141.25;57.53;;;;;;;-2.82;97.47;100725.75;5058644;28;20496;-49
2020/12/03 00:48:40;;;;;;;126.97;55.00;;;;;;;-2.60;97.21;100727.41;5058588;28;20044;-50
2020/12/03 00:51:11;;;;;;;131.05;54.75;;;;;;;-2.64;97.58;100730.44;5055708;28;20053;-50
2020/12/03 00:53:41;;;;;;;132.45;55.72;;;;;;;-2.64;97.49;100717.91;5055174;28;20045;-55
2020/12/03 00:56:07;;;;;;;134.05;56.13;;;;;;;-2.69;97.46;100717.56;5058416;28;20512;-54
2020/12/03 00:58:34;;;;;;;133.85;55.55;;;;;;;-2.59;97.64;100714.13;5058134;28;20105;-48
2020/12/03 01:01:00;;;;;;;129.57;53.60;;;;;;;-2.38;96.95;100714.94;5056425;28;20044;-49
2020/12/03 01:03:27;;;;;;;122.28;52.65;;;;;;;-2.37;96.15;100714.16;5054777;28;20077;-50
2020/12/03 01:05:53;;;;;;;125.22;55.58;;;;;;;-2.64;96.49;100716.28;5055931;28;20099;-52
2020/12/03 01:08:19;;;;;;;125.90;54.45;;;;;;;-2.48;96.04;100720.88;5058593;28;20331;-53
2020/12/03 01:10:46;;;;;;;127.95;55.47;;;;;;;-2.56;96.05;100716.88;5058202;28;20048;-50
2020/12/03 01:13:13;;;;;;;138.60;56.45;;;;;;;-2.68;96.69;100714.31;5054337;28;20490;-53
2020/12/03 01:15:41;;;;;;;131.70;55.63;;;;;;;-2.59;97.52;100721.66;5055047;28;20053;-49
2020/12/03 01:18:07;;;;;;;129.35;55.50;;;;;;;-2.67;97.51;100717.69;5057962;28;20105;-51
2020/12/03 01:20:34;;;;;;;128.25;53.08;;;;;;;-2.29;96.42;100694.72;5058632;28;20068;-53
2020/12/03 01:23:00;;;;;;;128.77;54.33;;;;;;;-2.57;96.85;100688.44;5055592;28;20098;-55
2020/12/03 01:25:27;;;;;;;123.03;55.33;;;;;;;-2.43;95.02;100689.50;5054561;28;20049;-52
2020/12/03 01:27:54;;;;;;;130.65;57.22;;;;;;;-2.65;95.56;100691.97;5055586;28;20765;-52
2020/12/03 01:30:21;;;;;;;126.75;54.78;;;;;;;-2.52;95.87;100685.41;5057780;28;20049;-51
2020/12/03 01:32:48;;;;;;;127.68;56.17;;;;;;;-2.80;96.08;100682.41;5057380;28;20055;-51
2020/12/03 01:35:17;;;;;;;130.80;55.42;;;;;;;-2.68;96.22;100679.22;5054114;28;20077;-52
2020/12/03 01:37:43;;;;;;;126.22;55.10;;;;;;;-2.56;95.85;100684.28;5054370;28;20045;-51
2020/12/03 01:40:15;;;;;;;142.10;55.92;;;;;;;-2.93;96.81;100678.91;5045834;28;20079;-47
2020/12/03 01:42:42;;;;;;;128.43;55.90;;;;;;;-2.70;96.60;100674.84;5054076;28;20053;-51
2020/12/03 01:45:45;;;;;;;129.68;57.15;;;;;;;-2.88;96.97;100675.16;5057346;28;20113;-54
2020/12/03 01:48:33;;;;;;;131.80;56.38;;;;;;;-2.87;97.21;100669.38;5046079;28;20068;-51
2020/12/03 01:51:15;;;;;;;140.40;59.42;;;;;;;-2.79;96.39;100662.47;5056236;28;20128;-50
2020/12/03 01:53:43;;;;;;;146.68;62.03;;;;;;;-2.94;97.46;100658.78;5057168;28;20048;-48
2020/12/03 01:56:25;;;;;;;132.48;54.47;;;;;;;-2.53;96.67;100646.94;5053703;28;20522;-48
2020/12/03 01:58:54;;;;;;;134.95;56.67;;;;;;;-2.92;96.50;100647.22;5054762;28;20053;-47
2020/12/03 02:01:20;;;;;;;136.35;57.38;;;;;;;-2.66;96.98;100644.25;5057221;28;20087;-51
2020/12/03 02:03:49;;;;;;;145.88;60.80;;;;;;;-3.04;97.04;100649.66;5056991;28;20068;-50
2020/12/03 02:06:18;;;;;;;152.15;60.72;;;;;;;-3.06;98.02;100646.16;5053829;28;20095;-51
2020/12/03 02:08:45;;;;;;;144.98;63.47;;;;;;;-3.07;98.03;100646.91;5053732;28;20048;-52
2020/12/03 02:11:13;;;;;;;166.45;66.28;;;;;;;-3.17;97.50;100635.28;5056844;28;20094;-54
2020/12/03 02:13:53;;;;;;;154.57;63.55;;;;;;;-3.12;97.97;100623.13;5056955;28;20550;-52
2020/12/03 02:16:20;;;;;;;149.02;62.10;;;;;;;-3.14;97.51;100623.03;5046499;28;20090;-52
2020/12/03 02:18:47;;;;;;;143.10;61.35;;;;;;;-2.97;97.45;100615.94;5053448;28;20111;-47
2020/12/03 02:21:15;;;;;;;141.20;63.10;;;;;;;-2.88;97.07;100607.50;5056672;28;20105;-52
2020/12/03 02:23:41;;;;;;;146.15;60.17;;;;;;;-3.02;96.19;100609.69;5056834;28;20097;-51
2020/12/03 02:26:08;;;;;;;147.15;59.75;;;;;;;-2.98;96.91;100604.19;5053344;28;20049;-48
2020/12/03 02:28:35;;;;;;;141.60;58.50;;;;;;;-2.74;95.20;100600.19;5053636;28;20397;-47
2020/12/03 02:31:01;;;;;;;138.85;58.05;;;;;;;-2.88;95.48;100592.47;5055726;28;20523;-51
2020/12/03 02:33:28;;;;;;;125.68;54.30;;;;;;;-2.57;94.28;100580.66;5056603;28;20451;-50
2020/12/03 02:35:54;;;;;;;140.13;57.38;;;;;;;-2.94;94.83;100571.97;5055308;28;20507;-47
2020/12/03 02:38:21;;;;;;;143.02;57.30;;;;;;;-2.55;94.37;100570.75;5052670;28;20049;-52
2020/12/03 02:40:48;;;;;;;146.90;60.58;;;;;;;-2.69;94.13;100569.69;5053403;28;20052;-51
2020/12/03 02:43:14;;;;;;;132.13;57.45;;;;;;;-2.81;94.84;100568.78;5056505;28;20123;-48
2020/12/03 02:45:41;;;;;;;153.32;62.28;;;;;;;-3.10;95.99;100566.50;5056482;28;20097;-47
2020/12/03 02:48:07;;;;;;;146.43;60.67;;;;;;;-2.80;94.86;100570.53;5052994;28;20486;-49
2020/12/03 02:50:34;;;;;;;138.20;60.40;;;;;;;-2.68;93.70;100563.94;5053334;28;20044;-52
2020/12/03 02:53:00;;;;;;;140.75;59.65;;;;;;;-2.77;94.03;100567.34;5054626;28;20394;-52
2020/12/03 02:55:26;;;;;;;148.23;60.53;;;;;;;-2.71;95.25;100556.19;5056140;28;20087;-47
2020/12/03 02:57:53;;;;;;;145.23;60.47;;;;;;;-2.77;94.27;100548.22;5054853;28;20048;-49
2020/12/03 03:00:19;;;;;;;147.15;60.80;;;;;;;-2.68;94.00;100541.41;5052930;28;20048;-52
2020/12/03 03:02:48;;;;;;;142.07;63.53;;;;;;;-3.01;94.93;100528.78;5052362;28;20498;-52
2020/12/03 03:05:15;;;;;;;139.98;61.35;;;;;;;-2.76;94.02;100522.41;5055722;28;20570;-50
2020/12/03 03:07:42;;;;;;;147.70;59.42;;;;;;;-2.66;94.41;100527.34;5055424;28;20048;-47
2020/12/03 03:10:09;;;;;;;150.15;60.35;;;;;;;-2.73;94.27;100521.72;5053025;28;20045;-51
2020/12/03 03:12:35;;;;;;;149.00;64.55;;;;;;;-2.99;94.71;100515.63;5053059;28;20075;-50
2020/12/03 03:15:02;;;;;;;145.00;64.43;;;;;;;-2.88;94.97;100511.44;5039446;28;20049;-52
2020/12/03 03:17:28;;;;;;;152.63;63.15;;;;;;;-2.74;93.94;100510.84;5040277;28;20124;-53
2020/12/03 03:19:54;;;;;;;149.52;60.97;;;;;;;-2.61;93.48;100507.63;5038613;28;20478;-49
2020/12/03 03:22:21;;;;;;;152.73;62.25;;;;;;;-2.50;93.49;100509.28;5036600;28;20103;-52
2020/12/03 03:24:47;;;;;;;155.07;62.13;;;;;;;-2.75;93.57;100506.59;5036854;28;20077;-52
2020/12/03 03:27:14;;;;;;;154.43;63.95;;;;;;;-2.80;93.38;100502.00;5040169;28;20049;-53
2020/12/03 03:29:40;;;;;;;160.00;66.45;;;;;;;-3.01;94.72;100491.22;5040057;28;20045;-49
2020/12/03 03:32:07;;;;;;;153.45;62.00;;;;;;;-2.69;94.18;100493.66;5037112;28;20103;-50
2020/12/03 03:34:33;;;;;;;149.20;63.60;;;;;;;-2.70;94.19;100495.28;5036911;28;20103;-52
2020/12/03 03:36:59;;;;;;;163.73;65.55;;;;;;;-2.83;94.11;100495.13;5038557;28;20502;-53
2020/12/03 03:39:26;;;;;;;150.07;60.63;;;;;;;-2.35;92.83;100497.03;5038896;28;20057;-50
2020/12/03 03:41:54;;;;;;;158.00;65.10;;;;;;;-2.74;93.43;100488.28;5038310;28;20098;-54
2020/12/03 03:44:21;;;;;;;158.18;65.90;;;;;;;-2.91;94.52;100493.66;5036409;28;20058;-49
2020/12/03 03:46:48;;;;;;;153.65;64.43;;;;;;;-2.75;94.23;100494.06;5036911;28;20053;-50
2020/12/03 03:49:15;;;;;;;153.40;64.03;;;;;;;-2.31;92.05;100497.38;5040255;28;20092;-50
2020/12/03 03:51:41;;;;;;;146.10;61.33;;;;;;;-2.24;91.25;100491.16;5039982;28;20159;-48
2020/12/03 03:54:07;;;;;;;164.43;63.83;;;;;;;-2.51;92.58;100499.16;5036769;28;20045;-49
2020/12/03 03:56:34;;;;;;;158.05;65.25;;;;;;;-2.85;93.44;100487.50;5036707;28;20505;-52
2020/12/03 03:59:00;;;;;;;161.05;64.60;;;;;;;-2.63;93.10;100489.97;5038229;28;20054;-51
2020/12/03 04:01:27;;;;;;;153.65;60.67;;;;;;;-2.28;91.99;100484.19;5039803;28;20118;-50
2020/12/03 04:03:53;;;;;;;156.00;64.00;;;;;;;-2.63;92.99;100476.59;5038608;28;20040;-54
2020/12/03 04:06:20;;;;;;;152.80;61.92;;;;;;;-2.31;91.96;100472.31;5036194;28;20114;-49
2020/12/03 04:08:46;;;;;;;163.40;64.78;;;;;;;-2.77;94.07;100478.06;5036556;28;20044;-48
2020/12/03 04:11:15;;;;;;;156.32;64.20;;;;;;;-2.68;93.99;100470.31;5039779;28;20546;-53
2020/12/03 04:13:43;;;;;;;161.48;65.20;;;;;;;-2.94;94.71;100469.28;5040944;28;20052;-50
2020/12/03 04:16:11;;;;;;;158.25;63.35;;;;;;;-2.70;94.83;100452.69;5039992;28;20041;-52
2020/12/03 04:18:39;;;;;;;157.15;66.47;;;;;;;-2.86;94.73;100450.69;5034906;28;20103;-51
2020/12/03 04:21:09;;;;;;;157.18;60.90;;;;;;;-2.33;93.56;100442.84;5030359;28;20076;-53
2020/12/03 04:23:36;;;;;;;159.50;66.18;;;;;;;-2.75;93.89;100448.97;5043193;28;20048;-50
2020/12/03 04:26:03;;;;;;;156.77;62.53;;;;;;;-2.63;93.74;100439.84;5040826;28;20041;-47
2020/12/03 04:28:29;;;;;;;168.40;65.20;;;;;;;-2.61;94.13;100434.94;5035336;28;20095;-49
2020/12/03 04:30:58;;;;;;;151.13;62.70;;;;;;;-2.36;93.60;100440.09;5037386;28;20609;-48
2020/12/03 04:33:25;;;;;;;160.82;65.05;;;;;;;-2.62;93.36;100441.59;5038956;28;20067;-50
2020/12/03 04:35:52;;;;;;;150.90;61.13;;;;;;;-2.48;92.91;100439.22;5038384;28;20175;-49
2020/12/03 04:38:18;;;;;;;156.00;62.33;;;;;;;-2.53;94.06;100435.53;5035351;28;20037;-49
2020/12/03 04:40:46;;;;;;;149.70;60.17;;;;;;;-2.36;93.33;100437.59;5035717;28;20041;-51
2020/12/03 04:43:27;;;;;;;166.50;64.70;;;;;;;-2.57;93.89;100437.78;5027578;28;20080;-51
2020/12/03 04:46:01;;;;;;;163.13;64.07;;;;;;;-2.71;94.73;100430.03;5036491;28;20102;-50
2020/12/03 04:48:42;;;;;;;156.00;63.03;;;;;;;-2.88;94.96;100424.63;5038283;28;20817;-52
2020/12/03 04:51:48;;;;;;;160.73;64.82;;;;;;;-2.71;93.96;100423.38;5050402;28;20048;-47
2020/12/03 04:54:20;;;;;;;155.20;62.90;;;;;;;-2.61;94.32;100423.28;5030193;28;20123;-49
2020/12/03 04:57:27;;;;;;;149.48;62.53;;;;;;;-2.60;93.36;100414.13;5039379;28;20049;-51
2020/12/03 05:00:18;;;;;;;162.05;63.85;;;;;;;-2.66;94.00;100412.06;5037066;28;20094;-46
2020/12/03 05:03:11;;;;;;;160.82;60.55;;;;;;;-2.28;92.16;100418.97;5054903;28;20049;-53
2020/12/03 05:05:58;;;;;;;143.73;58.90;;;;;;;-2.52;92.85;100409.69;5023997;28;20464;-52
2020/12/03 05:08:42;;;;;;;152.93;60.28;;;;;;;-2.57;92.17;100400.19;5030684;28;20102;-53
2020/12/03 05:11:21;;;;;;;147.93;59.33;;;;;;;-2.75;93.66;100410.50;5054853;28;20607;-52
2020/12/03 05:13:52;;;;;;;146.50;58.38;;;;;;;-2.42;91.92;100409.59;5054167;28;20067;-50
2020/12/03 05:16:29;;;;;;;146.05;58.25;;;;;;;-2.61;92.16;100407.38;5058177;28;20049;-51
2020/12/03 05:19:01;;;;;;;151.13;59.40;;;;;;;-2.20;91.93;100401.97;5056352;28;20044;-51
2020/12/03 05:21:31;;;;;;;143.30;57.53;;;;;;;-2.49;92.33;100395.75;5058525;28;20048;-51
2020/12/03 05:23:58;;;;;;;142.13;58.17;;;;;;;-2.38;92.71;100394.00;5058286;28;20103;-51
2020/12/03 05:26:28;;;;;;;147.10;58.30;;;;;;;-2.45;92.71;100391.81;5045328;28;20050;-54
2020/12/03 05:29:03;;;;;;;149.50;60.05;;;;;;;-2.37;92.15;100385.72;5038066;28;20072;-44
2020/12/03 05:31:37;;;;;;;153.73;58.92;;;;;;;-2.21;90.85;100391.09;5038649;28;20142;-46
2020/12/03 05:34:13;;;;;;;138.02;56.70;;;;;;;-2.11;91.35;100395.13;5039347;28;20733;-49
2020/12/03 05:36:59;;;;;;;140.48;59.28;;;;;;;-2.30;90.66;100392.94;5042526;28;20052;-46
2020/12/03 05:39:33;;;;;;;142.05;57.67;;;;;;;-2.27;92.46;100387.25;5045096;28;20064;-45
2020/12/03 05:42:09;;;;;;;141.60;56.10;;;;;;;-1.94;89.69;100386.25;5058601;28;20049;-45
2020/12/03 05:44:50;;;;;;;146.95;56.95;;;;;;;-2.09;89.59;100391.06;5055818;28;20037;-47
2020/12/03 05:47:30;;;;;;;146.38;60.72;;;;;;;-2.27;90.56;100389.75;5045830;28;20041;-43
2020/12/03 05:50:04;;;;;;;127.80;54.67;;;;;;;-2.16;89.48;100381.38;5056446;28;20822;-45
2020/12/03 05:52:31;;;;;;;150.23;59.28;;;;;;;-2.47;91.27;100383.31;5055060;28;20109;-48
2020/12/03 05:54:59;;;;;;;148.85;56.40;;;;;;;-1.78;88.49;100381.56;5036454;28;20105;-45
2020/12/03 05:57:30;;;;;;;148.50;58.38;;;;;;;-2.14;90.49;100378.19;5037058;28;20071;-45
2020/12/03 06:00:26;;;;;;;137.20;57.00;;;;;;;-2.40;91.44;100376.38;5054705;28;20080;-45
2020/12/03 06:03:45;;;;;;;148.85;58.72;;;;;;;-1.99;89.90;100368.38;5017401;28;20040;-46
2020/12/03 06:06:46;;;;;;;136.98;55.45;;;;;;;-2.41;91.37;100367.06;5045704;28;20123;-48
2020/12/03 06:09:26;;;;;;;135.77;54.90;;;;;;;-1.98;90.33;100372.66;5040562;28;20040;-44
2020/12/03 06:11:59;;;;;;;141.68;55.55;;;;;;;-2.28;90.31;100367.97;5056081;28;20052;-47
2020/12/03 06:14:53;;;;;;;141.25;57.25;;;;;;;-1.94;88.76;100367.06;5053299;28;20114;-47
2020/12/03 06:17:41;;;;;;;148.40;56.67;;;;;;;-2.48;91.35;100364.91;5045783;28;20525;-45
2020/12/03 06:20:41;;;;;;;135.43;54.55;;;;;;;-2.02;90.90;100367.31;5055717;28;20048;-45
2020/12/03 06:23:40;;;;;;;148.13;57.88;;;;;;;-2.63;92.89;100361.31;5053338;28;20477;-47
2020/12/03 06:26:31;;;;;;;146.63;56.97;;;;;;;-2.48;92.38;100369.91;5056523;28;20044;-48
2020/12/03 06:29:16;;;;;;;140.45;56.35;;;;;;;-2.37;91.65;100363.16;5054452;28;20040;-44
2020/12/03 06:32:11;;;;;;;135.82;59.35;;;;;;;-2.38;91.81;100358.91;5053507;28;20045;-44
2020/12/03 06:34:50;;;;;;;139.65;57.03;;;;;;;-1.84;89.23;100354.41;5015887;28;20037;-45
2020/12/03 06:37:34;;;;;;;146.45;57.50;;;;;;;-2.13;89.96;100359.88;5026033;28;20464;-47
2020/12/03 06:40:14;;;;;;;137.68;55.15;;;;;;;-2.42;90.38;100360.31;5038086;28;20036;-45
2020/12/03 06:43:02;;;;;;;147.85;60.50;;;;;;;-2.47;91.38;100364.13;5033654;28;20049;-45
2020/12/03 06:45:52;;;;;;;140.18;54.65;;;;;;;-1.94;90.15;100358.66;5033897;28;20045;-43
2020/12/03 06:48:34;;;;;;;140.32;57.13;;;;;;;-2.50;90.82;100360.53;5033879;28;20070;-47
2020/12/03 06:51:26;;;;;;;146.13;55.13;;;;;;;-2.01;90.49;100371.53;5051674;28;20053;-46
2020/12/03 06:54:11;;;;;;;139.15;54.80;;;;;;;-1.95;90.35;100361.94;5053475;28;20048;-44
2020/12/03 06:57:23;;;;;;;138.65;52.80;;;;;;;-1.94;89.49;100368.69;5030876;28;20044;-45
2020/12/03 07:00:17;;;;;;;140.93;56.28;;;;;;;-1.87;88.27;100359.19;5056612;28;20259;-46
2020/12/03 07:03:21;;;;;;;134.70;52.67;;;;;;;-2.06;89.01;100353.66;5058894;28;20155;-46
2020/12/03 07:06:16;;;;;;;138.45;52.40;;;;;;;-1.86;88.84;100343.38;5054003;28;20048;-45
2020/12/03 07:09:03;;;;;;;139.07;54.05;;;;;;;-1.97;89.55;100348.41;5059289;28;20404;-46
2020/12/03 07:12:16;;;;;;;137.90;53.50;;;;;;;-2.23;90.21;100351.59;5049680;28;20076;-44
2020/12/03 07:15:01;;;;;;;133.90;52.90;;;;;;;-2.00;89.77;100341.53;5055947;28;20045;-46
2020/12/03 07:18:15;;;;;;;129.60;53.50;;;;;;;-2.35;90.52;100339.09;5053176;28;20045;-49
2020/12/03 07:21:10;;;;;;;142.45;55.47;;;;;;;-2.19;90.63;100328.50;5049646;28;20033;-44
2020/12/03 07:23:47;;;;;;;126.55;51.88;;;;;;;-2.17;89.89;100331.97;5048217;28;20049;-43
2020/12/03 07:26:35;;;;;;;134.45;52.92;;;;;;;-2.04;89.35;100332.06;5036598;28;20045;-44
2020/12/03 07:29:02;;;;;;;131.57;51.05;;;;;;;-2.12;89.78;100333.19;5039503;28;20041;-45
2020/12/03 07:31:35;;;;;;;139.30;54.95;;;;;;;-2.52;92.31;100327.84;5039372;28;20305;-44
2020/12/03 07:34:26;;;;;;;141.15;57.03;;;;;;;-2.52;92.73;100325.34;5031058;28;20041;-51
2020/12/03 07:37:02;;;;;;;144.45;54.75;;;;;;;-2.36;91.68;100318.16;5041323;28;20065;-46
2020/12/03 07:39:35;;;;;;;126.63;51.80;;;;;;;-1.99;90.07;100310.66;5039337;28;20551;-48
2020/12/03 07:42:16;;;;;;;127.90;53.55;;;;;;;-2.32;89.71;100316.72;5041219;28;20476;-47
2020/12/03 07:44:51;;;;;;;129.07;51.72;;;;;;;-1.75;89.50;100313.16;5036617;28;20045;-46
2020/12/03 07:47:31;;;;;;;127.25;52.00;;;;;;;-1.81;88.29;100306.91;5045059;28;20446;-45
2020/12/03 07:50:26;;;;;;;123.85;49.75;;;;;;;-1.95;90.35;100304.22;5057391;28;20044;-46
2020/12/03 07:53:18;;;;;;;132.18;53.10;;;;;;;-2.08;90.61;100298.38;5058159;28;20101;-45
2020/12/03 07:55:45;;;;;;;134.18;52.13;;;;;;;-1.94;90.46;100304.34;5056593;28;20071;-46
2020/12/03 07:58:37;;;;;;;129.70;54.50;;;;;;;-1.45;87.70;100295.13;5047668;28;20048;-46
2020/12/03 08:01:27;;;;;;;128.38;50.42;;;;;;;-1.69;88.47;100308.53;5056228;28;20416;-48
2020/12/03 08:04:18;;;;;;;132.02;53.00;;;;;;;-1.71;89.52;100305.94;5060206;28;20048;-46
2020/12/03 08:07:00;;;;;;;111.05;48.75;;;;;;;-1.56;87.67;100299.44;5058517;28;20060;-44
2020/12/03 08:09:41;;;;;;;123.20;48.63;;;;;;;-1.52;87.82;100290.47;5055314;28;20052;-44
2020/12/03 08:12:11;;;;;;;120.10;49.40;;;;;;;-1.43;87.38;100282.66;5058087;28;20049;-46
2020/12/03 08:14:44;;;;;;;123.80;51.90;;;;;;;-1.77;88.29;100284.53;5038215;28;20044;-47
2020/12/03 08:17:16;;;;;;;118.05;49.70;;;;;;;-1.55;88.59;100278.56;5046058;28;20059;-47
2020/12/03 08:19:47;;;;;;;123.03;48.20;;;;;;;-1.34;86.57;100269.09;5055291;28;20061;-45
2020/12/03 08:22:28;;;;;;;119.32;49.63;;;;;;;-1.92;88.97;100265.19;5047697;28;20049;-43
2020/12/03 08:25:10;;;;;;;125.45;49.33;;;;;;;-1.74;89.26;100265.56;5059318;28;20048;-45
2020/12/03 08:27:37;;;;;;;115.03;47.63;;;;;;;-1.64;87.83;100267.91;5056079;28;20052;-47
2020/12/03 08:30:35;;;;;;;117.05;48.00;;;;;;;-1.34;86.87;100253.13;5057906;28;20114;-47
2020/12/03 08:33:06;;;;;;;116.63;49.17;;;;;;;-1.59;88.42;100253.16;5056091;28;20077;-47
2020/12/03 08:35:32;;;;;;;112.05;47.83;;;;;;;-1.34;87.71;100251.50;5056827;28;20052;-46
2020/12/03 08:38:01;;;;;;;112.88;46.90;;;;;;;-1.23;86.47;100259.72;5058926;28;20586;-47
2020/12/03 08:40:30;;;;;;;112.30;47.78;;;;;;;-1.10;86.70;100254.75;5063331;28;20143;-45
2020/12/03 08:43:02;;;;;;;113.03;46.85;;;;;;;-1.01;85.59;100251.97;5062158;28;20040;-46
2020/12/03 08:45:33;;;;;;;109.78;46.55;;;;;;;-1.14;86.30;100255.31;5058013;28;20496;-44
2020/12/03 08:48:00;;;;;;;114.68;46.40;;;;;;;-1.19;85.43;100263.31;5056148;28;20558;-44
2020/12/03 08:50:26;;;;;;;103.65;45.53;;;;;;;-0.78;84.42;100266.00;5061537;28;20056;-45
2020/12/03 08:52:53;;;;;;;107.22;43.60;;;;;;;-0.91;84.64;100265.97;5060911;28;20117;-45
2020/12/03 08:55:20;;;;;;;107.93;44.30;;;;;;;-0.88;83.95;100264.53;5055783;28;20048;-44
2020/12/03 08:57:47;;;;;;;101.53;43.90;;;;;;;-0.74;84.15;100265.38;5058580;28;20063;-45
2020/12/03 09:00:16;;;;;;;103.00;43.72;;;;;;;-0.58;82.84;100263.09;5058901;28;20049;-43
2020/12/03 09:02:43;;;;;;;94.72;42.20;;;;;;;-0.61;82.84;100255.34;5058057;28;20505;-43
2020/12/03 09:05:11;;;;;;;89.13;40.72;;;;;;;-0.65;82.02;100255.03;5054188;28;20056;-44
2020/12/03 09:07:44;;;;;;;96.10;40.45;;;;;;;-0.59;82.08;100248.78;5055214;28;20102;-43
2020/12/03 09:10:11;;;;;;;90.55;39.08;;;;;;;-0.78;82.54;100229.16;5046016;28;20045;-47
2020/12/03 09:12:40;;;;;;;94.80;39.88;;;;;;;-0.81;82.71;100231.47;5054599;28;20045;-50
2020/12/03 09:15:08;;;;;;;93.43;42.15;;;;;;;-0.84;84.33;100222.84;5056812;28;20048;-43
2020/12/03 09:17:39;;;;;;;91.75;40.38;;;;;;;-0.62;82.27;100212.50;5062332;28;20696;-43
2020/12/03 09:20:07;;;;;;;95.20;40.58;;;;;;;-0.78;82.08;100218.25;5058451;28;20413;-46
2020/12/03 09:22:35;;;;;;;96.97;40.78;;;;;;;-0.84;81.94;100222.84;5064703;28;20056;-46
2020/12/03 09:25:05;;;;;;;86.90;39.30;;;;;;;-0.71;81.97;100222.84;5062230;28;20381;-46
2020/12/03 09:27:38;;;;;;;94.93;41.78;;;;;;;-0.64;82.21;100230.03;5057965;28;20572;-43
2020/12/03 09:30:07;;;;;;;99.07;42.30;;;;;;;-0.77;84.06;100225.88;5059244;28;20052;-44
2020/12/03 09:32:38;;;;;;;86.72;38.30;;;;;;;-0.85;84.43;100208.56;5060801;28;20044;-45
2020/12/03 09:35:06;;;;;;;88.88;38.38;;;;;;;-0.59;82.29;100187.56;5055968;28;20051;-48
2020/12/03 09:37:33;;;;;;;96.50;40.28;;;;;;;-0.69;83.15;100197.81;5055321;28;20481;-48
2020/12/03 09:40:06;;;;;;;91.15;39.55;;;;;;;-0.50;82.44;100188.13;5055842;28;20052;-44
2020/12/03 09:42:41;;;;;;;91.43;39.72;;;;;;;-0.49;82.74;100187.34;5054696;28;20051;-44
2020/12/03 09:45:12;;;;;;;93.47;41.70;;;;;;;-0.52;82.45;100184.63;5061781;28;20044;-44
2020/12/03 09:47:42;;;;;;;91.70;41.47;;;;;;;-0.59;83.64;100177.50;5063125;28;20052;-45
2020/12/03 09:50:09;;;;;;;95.13;41.85;;;;;;;-0.93;84.96;100172.00;5056790;28;20061;-45
2020/12/03 09:52:36;;;;;;;92.38;37.00;;;;;;;-0.57;82.83;100171.78;5060163;28;20106;-46
2020/12/03 09:55:13;;;;;;;96.93;42.67;;;;;;;-0.48;82.59;100168.09;5057398;28;20053;-44
2020/12/03 09:57:40;;;;;;;101.90;42.45;;;;;;;-0.95;84.85;100161.88;5057247;28;20049;-45
2020/12/03 10:00:08;;;;;;;93.60;42.00;;;;;;;-0.61;83.08;100166.47;5057332;28;20420;-45
2020/12/03 10:02:54;;;;;;;95.43;42.47;;;;;;;-0.65;84.14;100165.41;5056139;28;20106;-45
2020/12/03 10:05:48;;;;;;;92.15;41.33;;;;;;;-0.49;84.22;100169.75;5054754;28;20538;-47
2020/12/03 10:08:52;;;;;;;98.43;42.83;;;;;;;-0.58;83.72;100164.16;5051105;28;20377;-45
2020/12/03 10:11:31;;;;;;;91.30;41.55;;;;;;;-0.32;82.28;100151.53;5052608;28;20590;-45
2020/12/03 10:14:25;;;;;;;86.22;37.03;;;;;;;-0.35;82.12;100135.38;5054834;28;20093;-46
2020/12/03 10:17:04;;;;;;;94.88;41.47;;;;;;;-0.25;83.41;100137.66;5061249;28;20120;-53
2020/12/03 10:19:37;;;;;;;91.95;40.47;;;;;;;-0.20;83.39;100142.97;5063400;28;20394;-48
2020/12/03 10:22:07;;;;;;;88.70;39.40;;;;;;;-0.13;83.72;100123.28;5052589;28;20052;-47
2020/12/03 10:24:43;;;;;;;100.30;39.90;;;;;;;-0.06;83.86;100122.84;5054740;28;20075;-44
2020/12/03 10:27:22;;;;;;;82.63;39.25;;;;;;;0.16;81.59;100109.00;5050174;28;20098;-46
2020/12/03 10:30:07;;;;;;;88.75;39.08;;;;;;;-0.31;83.59;100107.97;5060230;28;20044;-46
2020/12/03 10:32:43;;;;;;;90.20;41.72;;;;;;;-0.11;83.11;100111.66;5051331;28;20508;-45
2020/12/03 10:35:10;;;;;;;93.30;39.70;;;;;;;0.12;82.79;100109.63;5051876;28;20565;-44
2020/12/03 10:37:47;;;;;;;78.20;36.00;;;;;;;0.35;81.30;100095.81;5061728;28;20044;-50
2020/12/03 10:40:13;;;;;;;85.05;39.03;;;;;;;0.34;80.90;100096.63;5048784;28;20066;-45
2020/12/03 10:43:15;;;;;;;88.10;39.75;;;;;;;-0.03;82.07;100089.47;5053128;28;20558;-48
2020/12/03 10:45:49;;;;;;;85.97;38.45;;;;;;;-0.08;82.28;100088.34;5049523;28;20072;-45
2020/12/03 10:48:31;;;;;;;89.03;35.92;;;;;;;0.18;80.63;100080.63;5051403;28;20074;-44
2020/12/03 10:51:02;;;;;;;83.30;35.35;;;;;;;0.33;81.82;100072.22;5053638;28;20576;-44
2020/12/03 10:53:31;;;;;;;84.95;38.75;;;;;;;-0.38;84.33;100074.81;5054747;28;20044;-44
2020/12/03 10:56:03;;;;;;;84.35;37.65;;;;;;;-0.33;84.21;100079.34;5056835;28;20264;-45
2020/12/03 10:59:02;;;;;;;82.63;37.67;;;;;;;-0.16;83.62;100074.44;5060976;28;20609;-46
2020/12/03 11:01:31;;;;;;;85.32;38.95;;;;;;;-0.17;84.34;100060.13;5051079;28;20044;-44
2020/12/03 11:04:08;;;;;;;80.75;36.97;;;;;;;0.23;84.01;100060.72;5052590;28;20045;-44
2020/12/03 11:06:35;;;;;;;75.63;34.90;;;;;;;0.40;82.38;100049.09;5045426;28;20049;-46
2020/12/03 11:09:03;;;;;;;75.85;37.00;;;;;;;0.12;82.96;100052.59;5048853;28;20107;-46
2020/12/03 11:11:36;;;;;;;78.18;37.05;;;;;;;0.09;83.02;100047.38;5059481;28;20049;-48
2020/12/03 11:14:14;;;;;;;75.15;35.95;;;;;;;0.05;83.21;100032.91;5056650;28;20420;-47
2020/12/03 11:16:56;;;;;;;76.50;36.33;;;;;;;0.65;80.49;100019.44;5047768;28;20049;-45
2020/12/03 11:19:43;;;;;;;74.18;35.33;;;;;;;0.29;83.06;100009.88;5017124;28;20050;-45
2020/12/03 11:22:26;;;;;;;74.93;35.15;;;;;;;0.68;81.40;100004.47;5043608;28;20456;-49
2020/12/03 11:25:03;;;;;;;66.75;32.63;;;;;;;0.64;80.91;100002.56;5055460;28;20048;-44
2020/12/03 11:27:30;;;;;;;73.10;34.30;;;;;;;0.88;79.79;99992.06;5067017;28;20129;-44
2020/12/03 11:30:13;;;;;;;71.97;33.85;;;;;;;0.71;80.95;99991.19;5058457;28;20052;-44
2020/12/03 11:32:47;;;;;;;76.32;35.00;;;;;;;0.83;80.36;100001.03;5062409;28;20066;-44
2020/12/03 11:35:25;;;;;;;71.15;33.92;;;;;;;0.90;79.98;99993.91;5048529;28;20052;-45
2020/12/03 11:37:55;;;;;;;72.57;34.38;;;;;;;0.50;81.10;99981.69;5059266;28;20048;-47